Genco Loire — V7GN8 — position and weather

sailwx.info

Track history (hours):
 
Tides and Currents Weather Stations Pressure Air Temp Water Temp Dewpoint Dewpoint Depression Visibility Wind Speed Wind Dir Waves Ship Positions

Genco Loire

Last reported at 2016-Feb-07 14:19 UTC. Time now 2016-Feb-14 03:49 UTC.
Position N 36°17' E 014°48'.

Length 190 m; draft 10 m.

MMSI: 538002760.

Date/timePositionNaut miles runAvg speedWind from/ knotsBaromVisibWave heightAir tempDewpointWater temp
2016-Feb-07 14:19N 36°17' E 014°48'1012.6
2016-Feb-07 13:33N 36°18' E 014°36'1212.4
2016-Feb-07 12:33N 36°21' E 014°21'1212.4
2016-Feb-07 11:33N 36°25' E 014°07'1313.0
2016-Feb-07 10:31N 36°30' E 013°51'  
2016-Feb-04 03:32N 36°01' W 005°10'1313.5
2016-Feb-04 02:33N 35°58' W 005°26'8111.6
2016-Feb-03 19:32N 36°05' W 007°06'4912.2
2016-Feb-03 15:32N 36°18' W 008°05'1211.9
2016-Feb-03 14:32N 36°21' W 008°19'1212.1
2016-Feb-03 13:32N 36°24' W 008°33'1111.1
2016-Feb-03 12:32N 36°27' W 008°47'1312.5
2016-Feb-03 11:32N 36°31' W 009°02'1111.0
2016-Feb-03 10:32N 36°34' W 009°15'1212.3
2016-Feb-03 09:32N 36°42' W 009°26'1211.9
2016-Feb-03 08:32N 36°52' W 009°33'1211.9
2016-Feb-03 07:29N 37°04' W 009°38'1212.4
2016-Feb-03 06:32N 37°15' W 009°41'1312.7
2016-Feb-03 05:32N 37°28' W 009°44'1312.2
2016-Feb-03 04:29N 37°40' W 009°48'1111.8
2016-Feb-03 03:32N 37°51' W 009°51'1312.7
2016-Feb-03 02:32N 38°04' W 009°55'1312.9
2016-Feb-03 01:32N 38°16' W 009°59'1313.1
2016-Feb-03 00:32N 38°29' W 010°02'1312.2
2016-Feb-02 23:29N 38°41' W 010°05'1212.4
2016-Feb-02 22:32N 38°53' W 010°06'1212.8
2016-Feb-02 21:33N 39°06' W 010°06'1312.7
2016-Feb-02 20:32N 39°19' W 010°06'1211.8
2016-Feb-02 19:32N 39°31' W 010°06'1312.6
2016-Feb-02 18:29N 39°44' W 010°06'1513.6
2016-Feb-02 17:23N 39°59' W 010°06'1112.4
2016-Feb-02 16:32N 40°09' W 010°06'1211.7
2016-Feb-02 15:32N 40°21' W 010°06'1313.1
2016-Feb-02 14:32N 40°34' W 010°06'1313.0
2016-Feb-02 13:32N 40°47' W 010°06'1211.9
2016-Feb-02 12:32N 40°59' W 010°06'1713.3
2016-Feb-02 11:17N 41°16' W 010°06'911.9
2016-Feb-02 10:32N 41°25' W 010°06'1111.4
2016-Feb-02 09:32N 41°36' W 010°06'1212.4
2016-Feb-02 08:32N 41°48' W 010°06'  
2016-Jan-30 13:06N 50°28' W 000°07'7 8.9
2016-Jan-30 12:17N 50°30' E 000°04'7 9.1
2016-Jan-30 11:33N 50°32' E 000°14'10 9.7
2016-Jan-30 10:32N 50°34' E 000°29'1010.2
2016-Jan-30 09:33N 50°39' E 000°43'1111.3
2016-Jan-30 08:33N 50°45' E 000°58'1110.8
2016-Jan-30 07:33N 50°51' E 001°12'10 9.6
2016-Jan-30 06:33N 50°58' E 001°23'8 7.6
2016-Jan-30 05:34N 51°04' E 001°31'6 6.4
2016-Jan-30 04:33N 51°08' E 001°38'7 6.6
2016-Jan-30 03:33N 51°13' E 001°46'7 7.2
2016-Jan-30 02:33N 51°19' E 001°52'9 8.8
2016-Jan-30 01:33N 51°26' E 001°59'1010.3
2016-Jan-30 00:33N 51°34' E 002°10'83 8.9
2016-Jan-29 15:14N 52°31' E 003°49'6 8.8
2016-Jan-29 14:33N 52°30' E 003°59'9 9.4
2016-Jan-29 13:33N 52°30' E 004°14'7 6.9
2016-Jan-29 12:33N 52°29' E 004°25'7 6.9
2016-Jan-29 11:34N 52°28' E 004°37'3 3.2
2016-Jan-29 10:33N 52°27' E 004°41'4 4.4
2016-Jan-29 09:34N 52°24' E 004°47'0 0.1
2016-Jan-29 08:33N 52°24' E 004°47'0 0.0
2016-Jan-29 07:33N 52°24' E 004°47'0 0.0
2016-Jan-29 06:33N 52°24' E 004°47'0 0.0
2016-Jan-29 05:33N 52°24' E 004°47'0 0.0
2016-Jan-29 04:33N 52°24' E 004°47'0 0.0
2016-Jan-29 03:33N 52°24' E 004°47'0 0.0
2016-Jan-29 02:33N 52°24' E 004°47'0 0.0
2016-Jan-29 01:30N 52°24' E 004°47'0 0.0
2016-Jan-29 00:33N 52°24' E 004°47'0 0.0
2016-Jan-28 23:33N 52°24' E 004°47'0 0.0
2016-Jan-28 22:33N 52°24' E 004°47'0 0.0
2016-Jan-28 21:33N 52°24' E 004°47'0 0.0
2016-Jan-28 20:27N 52°24' E 004°47'0 0.0
2016-Jan-28 19:33N 52°24' E 004°47'0 0.0
2016-Jan-28 18:30N 52°24' E 004°47'0 0.0
2016-Jan-28 17:33N 52°24' E 004°47'0 0.0
2016-Jan-28 16:33N 52°24' E 004°47'0 0.0
2016-Jan-28 15:33N 52°24' E 004°47'0 0.0
2016-Jan-28 14:27N 52°24' E 004°47'  
Track history (hours):
 
Tides and Currents Weather Stations Pressure Air Temp Water Temp Dewpoint Dewpoint Depression Visibility Wind Speed Wind Dir Waves Ship Positions

Genco Loire

Last reported at 2016-Feb-07 14:19 UTC. Time now 2016-Feb-14 03:49 UTC.
Position N 36°17' E 014°48'.

Length 190 m; draft 10 m.

MMSI: 538002760.

Date/timePositionNaut miles runAvg speedWind from/ knotsBaromVisibWave heightAir tempDewpointWater temp
2016-Feb-07 14:19N 36°17' E 014°48'1012.6
2016-Feb-07 13:33N 36°18' E 014°36'1212.4
2016-Feb-07 12:33N 36°21' E 014°21'1212.4
2016-Feb-07 11:33N 36°25' E 014°07'1313.0
2016-Feb-07 10:31N 36°30' E 013°51'  
2016-Feb-04 03:32N 36°01' W 005°10'1313.5
2016-Feb-04 02:33N 35°58' W 005°26'8111.6
2016-Feb-03 19:32N 36°05' W 007°06'4912.2
2016-Feb-03 15:32N 36°18' W 008°05'1211.9
2016-Feb-03 14:32N 36°21' W 008°19'1212.1
2016-Feb-03 13:32N 36°24' W 008°33'1111.1
2016-Feb-03 12:32N 36°27' W 008°47'1312.5
2016-Feb-03 11:32N 36°31' W 009°02'1111.0
2016-Feb-03 10:32N 36°34' W 009°15'1212.3
2016-Feb-03 09:32N 36°42' W 009°26'1211.9
2016-Feb-03 08:32N 36°52' W 009°33'1211.9
2016-Feb-03 07:29N 37°04' W 009°38'1212.4
2016-Feb-03 06:32N 37°15' W 009°41'1312.7
2016-Feb-03 05:32N 37°28' W 009°44'1312.2
2016-Feb-03 04:29N 37°40' W 009°48'1111.8
2016-Feb-03 03:32N 37°51' W 009°51'1312.7
2016-Feb-03 02:32N 38°04' W 009°55'1312.9
2016-Feb-03 01:32N 38°16' W 009°59'1313.1
2016-Feb-03 00:32N 38°29' W 010°02'1312.2
2016-Feb-02 23:29N 38°41' W 010°05'1212.4
2016-Feb-02 22:32N 38°53' W 010°06'1212.8
2016-Feb-02 21:33N 39°06' W 010°06'1312.7
2016-Feb-02 20:32N 39°19' W 010°06'1211.8
2016-Feb-02 19:32N 39°31' W 010°06'1312.6
2016-Feb-02 18:29N 39°44' W 010°06'1513.6
2016-Feb-02 17:23N 39°59' W 010°06'1112.4
2016-Feb-02 16:32N 40°09' W 010°06'1211.7
2016-Feb-02 15:32N 40°21' W 010°06'1313.1
2016-Feb-02 14:32N 40°34' W 010°06'1313.0
2016-Feb-02 13:32N 40°47' W 010°06'1211.9
2016-Feb-02 12:32N 40°59' W 010°06'1713.3
2016-Feb-02 11:17N 41°16' W 010°06'911.9
2016-Feb-02 10:32N 41°25' W 010°06'1111.4
2016-Feb-02 09:32N 41°36' W 010°06'1212.4
2016-Feb-02 08:32N 41°48' W 010°06'  
2016-Jan-30 13:06N 50°28' W 000°07'7 8.9
2016-Jan-30 12:17N 50°30' E 000°04'7 9.1
2016-Jan-30 11:33N 50°32' E 000°14'10 9.7
2016-Jan-30 10:32N 50°34' E 000°29'1010.2
2016-Jan-30 09:33N 50°39' E 000°43'1111.3
2016-Jan-30 08:33N 50°45' E 000°58'1110.8
2016-Jan-30 07:33N 50°51' E 001°12'10 9.6
2016-Jan-30 06:33N 50°58' E 001°23'8 7.6
2016-Jan-30 05:34N 51°04' E 001°31'6 6.4
2016-Jan-30 04:33N 51°08' E 001°38'7 6.6
2016-Jan-30 03:33N 51°13' E 001°46'7 7.2
2016-Jan-30 02:33N 51°19' E 001°52'9 8.8
2016-Jan-30 01:33N 51°26' E 001°59'1010.3
2016-Jan-30 00:33N 51°34' E 002°10'83 8.9
2016-Jan-29 15:14N 52°31' E 003°49'6 8.8
2016-Jan-29 14:33N 52°30' E 003°59'9 9.4
2016-Jan-29 13:33N 52°30' E 004°14'7 6.9
2016-Jan-29 12:33N 52°29' E 004°25'7 6.9
2016-Jan-29 11:34N 52°28' E 004°37'3 3.2
2016-Jan-29 10:33N 52°27' E 004°41'4 4.4
2016-Jan-29 09:34N 52°24' E 004°47'0 0.1
2016-Jan-29 08:33N 52°24' E 004°47'0 0.0
2016-Jan-29 07:33N 52°24' E 004°47'0 0.0
2016-Jan-29 06:33N 52°24' E 004°47'0 0.0
2016-Jan-29 05:33N 52°24' E 004°47'0 0.0
2016-Jan-29 04:33N 52°24' E 004°47'0 0.0
2016-Jan-29 03:33N 52°24' E 004°47'0 0.0
2016-Jan-29 02:33N 52°24' E 004°47'0 0.0
2016-Jan-29 01:30N 52°24' E 004°47'0 0.0
2016-Jan-29 00:33N 52°24' E 004°47'0 0.0
2016-Jan-28 23:33N 52°24' E 004°47'0 0.0
2016-Jan-28 22:33N 52°24' E 004°47'0 0.0
2016-Jan-28 21:33N 52°24' E 004°47'0 0.0
2016-Jan-28 20:27N 52°24' E 004°47'0 0.0
2016-Jan-28 19:33N 52°24' E 004°47'0 0.0
2016-Jan-28 18:30N 52°24' E 004°47'0 0.0
2016-Jan-28 17:33N 52°24' E 004°47'0 0.0
2016-Jan-28 16:33N 52°24' E 004°47'0 0.0
2016-Jan-28 15:33N 52°24' E 004°47'0 0.0
2016-Jan-28 14:27N 52°24' E 004°47'  

Dump ship's entire track history